sensor_id;sensor_type;location;lat;lon;timestamp;P1;durP1;ratioP1;P2;durP2;ratioP2
54561;SDS011;69047;53.358;-1.486;2023-04-16T00:01:27;4.47;;;2.95;;
54561;SDS011;69047;53.358;-1.486;2023-04-16T00:03:53;3.88;;;2.75;;
54561;SDS011;69047;53.358;-1.486;2023-04-16T00:06:19;3.38;;;2.70;;
54561;SDS011;69047;53.358;-1.486;2023-04-16T00:08:44;5.47;;;2.88;;
54561;SDS011;69047;53.358;-1.486;2023-04-16T00:11:10;3.88;;;2.63;;
54561;SDS011;69047;53.358;-1.486;2023-04-16T00:13:36;3.83;;;2.60;;
54561;SDS011;69047;53.358;-1.486;2023-04-16T00:16:01;3.45;;;2.45;;
54561;SDS011;69047;53.358;-1.486;2023-04-16T00:18:26;5.45;;;2.80;;
54561;SDS011;69047;53.358;-1.486;2023-04-16T00:20:52;6.47;;;2.50;;
54561;SDS011;69047;53.358;-1.486;2023-04-16T00:23:18;6.32;;;2.88;;
54561;SDS011;69047;53.358;-1.486;2023-04-16T00:25:44;5.35;;;2.45;;
54561;SDS011;69047;53.358;-1.486;2023-04-16T00:28:09;3.28;;;2.65;;
54561;SDS011;69047;53.358;-1.486;2023-04-16T00:30:34;3.92;;;2.78;;
54561;SDS011;69047;53.358;-1.486;2023-04-16T00:33:00;3.33;;;2.58;;
54561;SDS011;69047;53.358;-1.486;2023-04-16T00:35:26;4.03;;;2.55;;
54561;SDS011;69047;53.358;-1.486;2023-04-16T00:37:52;4.00;;;2.67;;
54561;SDS011;69047;53.358;-1.486;2023-04-16T00:40:17;3.95;;;2.50;;
54561;SDS011;69047;53.358;-1.486;2023-04-16T00:42:42;3.00;;;2.42;;
54561;SDS011;69047;53.358;-1.486;2023-04-16T00:45:09;4.22;;;2.53;;
54561;SDS011;69047;53.358;-1.486;2023-04-16T00:47:35;3.00;;;2.33;;
54561;SDS011;69047;53.358;-1.486;2023-04-16T00:50:02;3.17;;;2.10;;
54561;SDS011;69047;53.358;-1.486;2023-04-16T00:52:28;2.95;;;2.30;;
54561;SDS011;69047;53.358;-1.486;2023-04-16T00:54:53;4.00;;;2.30;;
54561;SDS011;69047;53.358;-1.486;2023-04-16T00:57:20;4.32;;;2.65;;
54561;SDS011;69047;53.358;-1.486;2023-04-16T00:59:47;4.00;;;2.40;;
54561;SDS011;69047;53.358;-1.486;2023-04-16T01:02:13;2.85;;;2.33;;
54561;SDS011;69047;53.358;-1.486;2023-04-16T01:04:38;3.58;;;2.08;;
54561;SDS011;69047;53.358;-1.486;2023-04-16T01:07:04;2.50;;;1.98;;
54561;SDS011;69047;53.358;-1.486;2023-04-16T01:09:29;2.90;;;2.10;;
54561;SDS011;69047;53.358;-1.486;2023-04-16T01:11:54;2.72;;;2.03;;
54561;SDS011;69047;53.358;-1.486;2023-04-16T01:14:20;4.15;;;2.47;;
54561;SDS011;69047;53.358;-1.486;2023-04-16T01:16:45;2.92;;;1.83;;
54561;SDS011;69047;53.358;-1.486;2023-04-16T01:19:11;2.58;;;2.10;;
54561;SDS011;69047;53.358;-1.486;2023-04-16T01:21:36;3.33;;;2.60;;
54561;SDS011;69047;53.358;-1.486;2023-04-16T01:24:02;4.20;;;2.03;;
54561;SDS011;69047;53.358;-1.486;2023-04-16T01:26:28;6.55;;;2.45;;
54561;SDS011;69047;53.358;-1.486;2023-04-16T01:28:54;4.55;;;2.35;;
54561;SDS011;69047;53.358;-1.486;2023-04-16T01:31:19;2.88;;;1.98;;
54561;SDS011;69047;53.358;-1.486;2023-04-16T01:33:45;3.83;;;1.95;;
54561;SDS011;69047;53.358;-1.486;2023-04-16T01:36:10;2.45;;;1.80;;
54561;SDS011;69047;53.358;-1.486;2023-04-16T01:38:35;3.60;;;2.00;;
54561;SDS011;69047;53.358;-1.486;2023-04-16T01:41:01;2.97;;;1.95;;
54561;SDS011;69047;53.358;-1.486;2023-04-16T01:43:27;3.33;;;1.92;;
54561;SDS011;69047;53.358;-1.486;2023-04-16T01:45:53;4.22;;;2.20;;
54561;SDS011;69047;53.358;-1.486;2023-04-16T01:48:32;3.25;;;2.03;;
54561;SDS011;69047;53.358;-1.486;2023-04-16T01:50:57;4.60;;;2.03;;
54561;SDS011;69047;53.358;-1.486;2023-04-16T01:53:24;3.83;;;1.95;;
54561;SDS011;69047;53.358;-1.486;2023-04-16T01:55:49;2.38;;;1.90;;
54561;SDS011;69047;53.358;-1.486;2023-04-16T01:58:15;3.53;;;1.85;;
54561;SDS011;69047;53.358;-1.486;2023-04-16T02:00:40;3.67;;;2.10;;
54561;SDS011;69047;53.358;-1.486;2023-04-16T02:03:05;2.78;;;2.15;;
54561;SDS011;69047;53.358;-1.486;2023-04-16T02:05:31;2.30;;;1.90;;
54561;SDS011;69047;53.358;-1.486;2023-04-16T02:07:56;3.85;;;2.00;;
54561;SDS011;69047;53.358;-1.486;2023-04-16T02:10:22;2.65;;;1.85;;
54561;SDS011;69047;53.358;-1.486;2023-04-16T02:12:47;3.53;;;2.33;;
54561;SDS011;69047;53.358;-1.486;2023-04-16T02:15:13;4.07;;;2.30;;
54561;SDS011;69047;53.358;-1.486;2023-04-16T02:17:39;4.38;;;2.30;;
54561;SDS011;69047;53.358;-1.486;2023-04-16T02:20:05;2.67;;;2.13;;
54561;SDS011;69047;53.358;-1.486;2023-04-16T02:22:32;1.90;;;1.70;;
54561;SDS011;69047;53.358;-1.486;2023-04-16T02:24:57;3.83;;;2.17;;
54561;SDS011;69047;53.358;-1.486;2023-04-16T02:27:23;2.50;;;2.00;;
54561;SDS011;69047;53.358;-1.486;2023-04-16T02:29:48;3.05;;;1.92;;
54561;SDS011;69047;53.358;-1.486;2023-04-16T02:32:13;3.60;;;1.90;;
54561;SDS011;69047;53.358;-1.486;2023-04-16T02:34:39;4.47;;;2.08;;
54561;SDS011;69047;53.358;-1.486;2023-04-16T02:37:04;2.80;;;1.88;;
54561;SDS011;69047;53.358;-1.486;2023-04-16T02:39:30;3.58;;;2.13;;
54561;SDS011;69047;53.358;-1.486;2023-04-16T02:41:55;2.05;;;1.83;;
54561;SDS011;69047;53.358;-1.486;2023-04-16T02:44:21;2.85;;;1.90;;
54561;SDS011;69047;53.358;-1.486;2023-04-16T02:46:47;3.70;;;1.88;;
54561;SDS011;69047;53.358;-1.486;2023-04-16T02:49:12;2.63;;;1.95;;
54561;SDS011;69047;53.358;-1.486;2023-04-16T02:51:37;2.90;;;1.90;;
54561;SDS011;69047;53.358;-1.486;2023-04-16T02:54:03;3.28;;;2.22;;
54561;SDS011;69047;53.358;-1.486;2023-04-16T02:56:28;3.40;;;2.10;;
54561;SDS011;69047;53.358;-1.486;2023-04-16T02:58:54;2.65;;;2.10;;
54561;SDS011;69047;53.358;-1.486;2023-04-16T03:01:19;2.67;;;2.22;;
54561;SDS011;69047;53.358;-1.486;2023-04-16T03:03:44;4.13;;;2.15;;
54561;SDS011;69047;53.358;-1.486;2023-04-16T03:06:10;2.97;;;1.95;;
54561;SDS011;69047;53.358;-1.486;2023-04-16T03:08:35;4.72;;;2.28;;
54561;SDS011;69047;53.358;-1.486;2023-04-16T03:11:02;5.72;;;2.28;;
54561;SDS011;69047;53.358;-1.486;2023-04-16T03:13:27;2.45;;;1.92;;
54561;SDS011;69047;53.358;-1.486;2023-04-16T03:15:52;3.15;;;2.05;;
54561;SDS011;69047;53.358;-1.486;2023-04-16T03:18:18;4.20;;;1.90;;
54561;SDS011;69047;53.358;-1.486;2023-04-16T03:20:43;2.97;;;1.73;;
54561;SDS011;69047;53.358;-1.486;2023-04-16T03:23:09;4.07;;;2.10;;
54561;SDS011;69047;53.358;-1.486;2023-04-16T03:25:34;3.63;;;2.40;;
54561;SDS011;69047;53.358;-1.486;2023-04-16T03:28:00;3.88;;;2.30;;
54561;SDS011;69047;53.358;-1.486;2023-04-16T03:30:27;3.00;;;2.13;;
54561;SDS011;69047;53.358;-1.486;2023-04-16T03:32:52;3.67;;;2.20;;
54561;SDS011;69047;53.358;-1.486;2023-04-16T03:35:18;4.75;;;2.20;;
54561;SDS011;69047;53.358;-1.486;2023-04-16T03:37:43;6.07;;;2.60;;
54561;SDS011;69047;53.358;-1.486;2023-04-16T03:40:09;4.13;;;2.30;;
54561;SDS011;69047;53.358;-1.486;2023-04-16T03:42:35;4.05;;;2.45;;
54561;SDS011;69047;53.358;-1.486;2023-04-16T03:45:00;3.25;;;2.78;;
54561;SDS011;69047;53.358;-1.486;2023-04-16T03:47:26;4.40;;;2.80;;
54561;SDS011;69047;53.358;-1.486;2023-04-16T03:49:51;3.28;;;2.83;;
54561;SDS011;69047;53.358;-1.486;2023-04-16T03:52:16;5.28;;;2.78;;
54561;SDS011;69047;53.358;-1.486;2023-04-16T03:54:42;2.92;;;2.33;;
54561;SDS011;69047;53.358;-1.486;2023-04-16T03:57:07;4.55;;;2.65;;
54561;SDS011;69047;53.358;-1.486;2023-04-16T03:59:32;4.90;;;2.60;;
54561;SDS011;69047;53.358;-1.486;2023-04-16T04:01:58;5.15;;;2.47;;
54561;SDS011;69047;53.358;-1.486;2023-04-16T04:04:23;3.47;;;2.58;;
54561;SDS011;69047;53.358;-1.486;2023-04-16T04:06:49;4.38;;;2.85;;
54561;SDS011;69047;53.358;-1.486;2023-04-16T04:09:14;4.28;;;3.38;;
54561;SDS011;69047;53.358;-1.486;2023-04-16T04:11:40;4.93;;;2.97;;
54561;SDS011;69047;53.358;-1.486;2023-04-16T04:14:06;6.22;;;2.72;;
54561;SDS011;69047;53.358;-1.486;2023-04-16T04:16:31;4.55;;;3.35;;
54561;SDS011;69047;53.358;-1.486;2023-04-16T04:18:57;3.20;;;2.80;;
54561;SDS011;69047;53.358;-1.486;2023-04-16T04:21:24;2.72;;;2.38;;
54561;SDS011;69047;53.358;-1.486;2023-04-16T04:23:49;4.60;;;3.20;;
54561;SDS011;69047;53.358;-1.486;2023-04-16T04:26:15;3.78;;;2.83;;
54561;SDS011;69047;53.358;-1.486;2023-04-16T04:28:41;2.78;;;2.33;;
54561;SDS011;69047;53.358;-1.486;2023-04-16T04:31:06;3.80;;;2.40;;
54561;SDS011;69047;53.358;-1.486;2023-04-16T04:33:31;5.95;;;3.08;;
54561;SDS011;69047;53.358;-1.486;2023-04-16T04:35:57;3.72;;;2.42;;
54561;SDS011;69047;53.358;-1.486;2023-04-16T04:38:22;3.72;;;3.20;;
54561;SDS011;69047;53.358;-1.486;2023-04-16T04:40:51;3.38;;;2.67;;
54561;SDS011;69047;53.358;-1.486;2023-04-16T04:43:17;4.93;;;2.50;;
54561;SDS011;69047;53.358;-1.486;2023-04-16T04:45:43;5.53;;;2.97;;
54561;SDS011;69047;53.358;-1.486;2023-04-16T04:48:09;4.40;;;2.60;;
54561;SDS011;69047;53.358;-1.486;2023-04-16T04:50:35;3.80;;;2.78;;
54561;SDS011;69047;53.358;-1.486;2023-04-16T04:53:00;2.63;;;2.42;;
54561;SDS011;69047;53.358;-1.486;2023-04-16T04:55:26;4.60;;;2.90;;
54561;SDS011;69047;53.358;-1.486;2023-04-16T04:57:51;3.63;;;2.58;;
54561;SDS011;69047;53.358;-1.486;2023-04-16T05:00:17;4.05;;;2.83;;
54561;SDS011;69047;53.358;-1.486;2023-04-16T05:02:42;3.35;;;2.58;;
54561;SDS011;69047;53.358;-1.486;2023-04-16T05:05:07;3.67;;;2.53;;
54561;SDS011;69047;53.358;-1.486;2023-04-16T05:07:33;3.38;;;2.80;;
54561;SDS011;69047;53.358;-1.486;2023-04-16T05:09:59;2.65;;;2.20;;
54561;SDS011;69047;53.358;-1.486;2023-04-16T05:12:25;2.95;;;2.65;;
54561;SDS011;69047;53.358;-1.486;2023-04-16T05:14:53;4.10;;;2.78;;
54561;SDS011;69047;53.358;-1.486;2023-04-16T05:17:20;4.28;;;2.90;;
54561;SDS011;69047;53.358;-1.486;2023-04-16T05:19:46;6.57;;;3.00;;
54561;SDS011;69047;53.358;-1.486;2023-04-16T05:22:11;2.55;;;2.35;;
54561;SDS011;69047;53.358;-1.486;2023-04-16T05:24:37;4.97;;;3.17;;
54561;SDS011;69047;53.358;-1.486;2023-04-16T05:27:03;5.20;;;2.60;;
54561;SDS011;69047;53.358;-1.486;2023-04-16T05:29:28;2.80;;;2.38;;
54561;SDS011;69047;53.358;-1.486;2023-04-16T05:31:54;4.63;;;2.38;;
54561;SDS011;69047;53.358;-1.486;2023-04-16T05:34:19;4.30;;;2.55;;
54561;SDS011;69047;53.358;-1.486;2023-04-16T05:36:45;2.85;;;2.55;;
54561;SDS011;69047;53.358;-1.486;2023-04-16T05:39:11;2.95;;;2.55;;
54561;SDS011;69047;53.358;-1.486;2023-04-16T05:41:36;4.65;;;2.70;;
54561;SDS011;69047;53.358;-1.486;2023-04-16T05:44:01;3.60;;;2.47;;
54561;SDS011;69047;53.358;-1.486;2023-04-16T05:46:27;3.53;;;2.75;;
54561;SDS011;69047;53.358;-1.486;2023-04-16T05:48:52;3.35;;;2.33;;
54561;SDS011;69047;53.358;-1.486;2023-04-16T05:51:18;2.63;;;2.25;;
54561;SDS011;69047;53.358;-1.486;2023-04-16T05:53:46;3.85;;;2.60;;
54561;SDS011;69047;53.358;-1.486;2023-04-16T05:56:12;4.25;;;2.47;;
54561;SDS011;69047;53.358;-1.486;2023-04-16T05:58:37;3.83;;;2.67;;
54561;SDS011;69047;53.358;-1.486;2023-04-16T06:01:03;2.85;;;2.33;;
54561;SDS011;69047;53.358;-1.486;2023-04-16T06:03:28;4.72;;;2.58;;
54561;SDS011;69047;53.358;-1.486;2023-04-16T06:05:53;3.33;;;2.28;;
54561;SDS011;69047;53.358;-1.486;2023-04-16T06:08:19;3.53;;;2.28;;
54561;SDS011;69047;53.358;-1.486;2023-04-16T06:10:45;2.88;;;2.05;;
54561;SDS011;69047;53.358;-1.486;2023-04-16T06:13:10;2.60;;;2.25;;
54561;SDS011;69047;53.358;-1.486;2023-04-16T06:15:36;2.55;;;2.28;;
54561;SDS011;69047;53.358;-1.486;2023-04-16T06:18:01;2.53;;;2.05;;
54561;SDS011;69047;53.358;-1.486;2023-04-16T06:20:26;2.90;;;2.08;;
54561;SDS011;69047;53.358;-1.486;2023-04-16T06:22:52;2.60;;;2.10;;
54561;SDS011;69047;53.358;-1.486;2023-04-16T06:25:17;2.60;;;2.05;;
54561;SDS011;69047;53.358;-1.486;2023-04-16T06:27:43;3.92;;;2.30;;
54561;SDS011;69047;53.358;-1.486;2023-04-16T06:30:11;4.63;;;2.67;;
54561;SDS011;69047;53.358;-1.486;2023-04-16T06:32:37;5.10;;;2.40;;
54561;SDS011;69047;53.358;-1.486;2023-04-16T06:35:03;3.47;;;2.20;;
54561;SDS011;69047;53.358;-1.486;2023-04-16T06:37:29;2.45;;;2.00;;
54561;SDS011;69047;53.358;-1.486;2023-04-16T06:39:54;3.92;;;2.17;;
54561;SDS011;69047;53.358;-1.486;2023-04-16T06:42:19;2.90;;;2.22;;
54561;SDS011;69047;53.358;-1.486;2023-04-16T06:44:45;4.18;;;1.90;;
54561;SDS011;69047;53.358;-1.486;2023-04-16T06:47:10;2.15;;;1.67;;
54561;SDS011;69047;53.358;-1.486;2023-04-16T06:49:36;2.95;;;2.20;;
54561;SDS011;69047;53.358;-1.486;2023-04-16T06:52:01;2.38;;;2.00;;
54561;SDS011;69047;53.358;-1.486;2023-04-16T06:54:26;3.33;;;1.83;;
54561;SDS011;69047;53.358;-1.486;2023-04-16T06:56:52;2.67;;;2.03;;
54561;SDS011;69047;53.358;-1.486;2023-04-16T06:59:17;3.20;;;2.30;;
54561;SDS011;69047;53.358;-1.486;2023-04-16T07:01:42;3.00;;;2.20;;
54561;SDS011;69047;53.358;-1.486;2023-04-16T07:04:08;3.88;;;2.20;;
54561;SDS011;69047;53.358;-1.486;2023-04-16T07:06:34;4.25;;;1.80;;
54561;SDS011;69047;53.358;-1.486;2023-04-16T07:09:00;2.20;;;1.83;;
54561;SDS011;69047;53.358;-1.486;2023-04-16T07:11:25;2.25;;;1.60;;
54561;SDS011;69047;53.358;-1.486;2023-04-16T07:13:51;2.95;;;1.92;;
54561;SDS011;69047;53.358;-1.486;2023-04-16T07:16:17;3.10;;;2.00;;
54561;SDS011;69047;53.358;-1.486;2023-04-16T07:18:43;2.13;;;1.45;;
54561;SDS011;69047;53.358;-1.486;2023-04-16T07:21:08;2.15;;;1.70;;
54561;SDS011;69047;53.358;-1.486;2023-04-16T07:23:34;2.25;;;1.60;;
54561;SDS011;69047;53.358;-1.486;2023-04-16T07:26:00;2.03;;;1.50;;
54561;SDS011;69047;53.358;-1.486;2023-04-16T07:28:25;2.63;;;1.85;;
54561;SDS011;69047;53.358;-1.486;2023-04-16T07:30:50;2.45;;;1.40;;
54561;SDS011;69047;53.358;-1.486;2023-04-16T07:33:16;1.90;;;1.70;;
54561;SDS011;69047;53.358;-1.486;2023-04-16T07:35:41;2.67;;;1.67;;
54561;SDS011;69047;53.358;-1.486;2023-04-16T07:38:07;1.98;;;1.60;;
54561;SDS011;69047;53.358;-1.486;2023-04-16T07:40:32;2.92;;;1.70;;
54561;SDS011;69047;53.358;-1.486;2023-04-16T07:42:57;2.10;;;1.70;;
54561;SDS011;69047;53.358;-1.486;2023-04-16T07:45:23;2.72;;;1.65;;
54561;SDS011;69047;53.358;-1.486;2023-04-16T07:47:48;2.13;;;1.50;;
54561;SDS011;69047;53.358;-1.486;2023-04-16T07:50:14;2.35;;;1.52;;
54561;SDS011;69047;53.358;-1.486;2023-04-16T07:52:40;2.13;;;1.35;;
54561;SDS011;69047;53.358;-1.486;2023-04-16T07:55:07;1.88;;;1.42;;
54561;SDS011;69047;53.358;-1.486;2023-04-16T07:57:33;2.72;;;1.50;;
54561;SDS011;69047;53.358;-1.486;2023-04-16T07:59:58;3.15;;;1.40;;
54561;SDS011;69047;53.358;-1.486;2023-04-16T08:02:26;2.80;;;1.63;;
54561;SDS011;69047;53.358;-1.486;2023-04-16T08:04:51;2.05;;;1.35;;
54561;SDS011;69047;53.358;-1.486;2023-04-16T08:07:17;2.35;;;1.30;;
54561;SDS011;69047;53.358;-1.486;2023-04-16T08:09:50;2.95;;;1.40;;
54561;SDS011;69047;53.358;-1.486;2023-04-16T08:12:16;1.45;;;1.02;;
54561;SDS011;69047;53.358;-1.486;2023-04-16T08:14:42;2.28;;;1.08;;
54561;SDS011;69047;53.358;-1.486;2023-04-16T08:17:07;1.50;;;1.08;;
54561;SDS011;69047;53.358;-1.486;2023-04-16T08:19:33;1.92;;;1.08;;
54561;SDS011;69047;53.358;-1.486;2023-04-16T08:21:58;1.65;;;1.10;;
54561;SDS011;69047;53.358;-1.486;2023-04-16T08:24:24;1.33;;;0.98;;
54561;SDS011;69047;53.358;-1.486;2023-04-16T08:26:49;1.67;;;1.08;;
54561;SDS011;69047;53.358;-1.486;2023-04-16T08:29:14;1.10;;;0.85;;
54561;SDS011;69047;53.358;-1.486;2023-04-16T08:31:40;2.53;;;1.00;;
54561;SDS011;69047;53.358;-1.486;2023-04-16T08:34:05;1.02;;;0.90;;
54561;SDS011;69047;53.358;-1.486;2023-04-16T08:36:31;1.58;;;0.90;;
54561;SDS011;69047;53.358;-1.486;2023-04-16T08:38:56;2.00;;;0.82;;
54561;SDS011;69047;53.358;-1.486;2023-04-16T08:41:22;1.35;;;0.82;;
54561;SDS011;69047;53.358;-1.486;2023-04-16T08:43:48;1.58;;;0.80;;
54561;SDS011;69047;53.358;-1.486;2023-04-16T08:46:15;2.22;;;0.98;;
54561;SDS011;69047;53.358;-1.486;2023-04-16T08:48:41;3.15;;;1.00;;
54561;SDS011;69047;53.358;-1.486;2023-04-16T08:51:09;3.33;;;1.17;;
54561;SDS011;69047;53.358;-1.486;2023-04-16T08:53:35;6.03;;;1.20;;
54561;SDS011;69047;53.358;-1.486;2023-04-16T08:56:27;2.88;;;0.73;;
54561;SDS011;69047;53.358;-1.486;2023-04-16T08:58:53;2.35;;;0.70;;
54561;SDS011;69047;53.358;-1.486;2023-04-16T09:01:19;2.05;;;1.10;;
54561;SDS011;69047;53.358;-1.486;2023-04-16T09:03:48;1.52;;;0.85;;
54561;SDS011;69047;53.358;-1.486;2023-04-16T09:06:14;1.10;;;0.80;;
54561;SDS011;69047;53.358;-1.486;2023-04-16T09:08:40;2.45;;;0.90;;
54561;SDS011;69047;53.358;-1.486;2023-04-16T09:11:08;1.58;;;0.60;;
54561;SDS011;69047;53.358;-1.486;2023-04-16T09:13:35;2.50;;;0.47;;
54561;SDS011;69047;53.358;-1.486;2023-04-16T09:16:02;2.58;;;1.00;;
54561;SDS011;69047;53.358;-1.486;2023-04-16T09:18:27;3.05;;;1.00;;
54561;SDS011;69047;53.358;-1.486;2023-04-16T09:20:53;2.40;;;1.00;;
54561;SDS011;69047;53.358;-1.486;2023-04-16T09:23:23;0.90;;;0.70;;
54561;SDS011;69047;53.358;-1.486;2023-04-16T09:25:49;3.53;;;0.80;;
54561;SDS011;69047;53.358;-1.486;2023-04-16T09:31:10;6.93;;;0.95;;
54561;SDS011;69047;53.358;-1.486;2023-04-16T09:33:37;3.47;;;0.90;;
54561;SDS011;69047;53.358;-1.486;2023-04-16T09:36:04;2.35;;;0.80;;
54561;SDS011;69047;53.358;-1.486;2023-04-16T09:41:12;2.80;;;0.55;;
54561;SDS011;69047;53.358;-1.486;2023-04-16T09:43:40;1.23;;;0.70;;
54561;SDS011;69047;53.358;-1.486;2023-04-16T09:46:05;3.05;;;0.70;;
54561;SDS011;69047;53.358;-1.486;2023-04-16T09:48:31;3.58;;;0.98;;
54561;SDS011;69047;53.358;-1.486;2023-04-16T09:51:00;4.43;;;0.70;;
54561;SDS011;69047;53.358;-1.486;2023-04-16T09:53:29;3.25;;;0.60;;
54561;SDS011;69047;53.358;-1.486;2023-04-16T09:55:56;2.38;;;0.60;;
54561;SDS011;69047;53.358;-1.486;2023-04-16T09:58:22;5.95;;;0.95;;
54561;SDS011;69047;53.358;-1.486;2023-04-16T10:00:54;1.48;;;0.60;;
54561;SDS011;69047;53.358;-1.486;2023-04-16T10:03:28;0.55;;;0.55;;
54561;SDS011;69047;53.358;-1.486;2023-04-16T10:05:55;1.48;;;0.52;;
54561;SDS011;69047;53.358;-1.486;2023-04-16T10:08:24;2.15;;;0.50;;
54561;SDS011;69047;53.358;-1.486;2023-04-16T10:10:49;0.73;;;0.40;;
54561;SDS011;69047;53.358;-1.486;2023-04-16T10:13:15;2.08;;;0.70;;
54561;SDS011;69047;53.358;-1.486;2023-04-16T10:15:41;2.15;;;0.50;;
54561;SDS011;69047;53.358;-1.486;2023-04-16T10:18:07;1.88;;;0.55;;
54561;SDS011;69047;53.358;-1.486;2023-04-16T10:20:33;1.00;;;0.57;;
54561;SDS011;69047;53.358;-1.486;2023-04-16T10:22:59;1.92;;;0.68;;
54561;SDS011;69047;53.358;-1.486;2023-04-16T10:25:25;1.50;;;0.60;;
54561;SDS011;69047;53.358;-1.486;2023-04-16T10:27:50;4.00;;;0.50;;
54561;SDS011;69047;53.358;-1.486;2023-04-16T10:30:16;3.20;;;0.70;;
54561;SDS011;69047;53.358;-1.486;2023-04-16T10:32:43;1.27;;;0.35;;
54561;SDS011;69047;53.358;-1.486;2023-04-16T10:35:18;1.48;;;0.60;;
54561;SDS011;69047;53.358;-1.486;2023-04-16T10:37:44;3.10;;;0.70;;
54561;SDS011;69047;53.358;-1.486;2023-04-16T10:40:22;0.85;;;0.40;;
54561;SDS011;69047;53.358;-1.486;2023-04-16T10:42:53;1.48;;;0.80;;
54561;SDS011;69047;53.358;-1.486;2023-04-16T10:45:31;0.73;;;0.30;;
54561;SDS011;69047;53.358;-1.486;2023-04-16T10:47:58;0.88;;;0.32;;
54561;SDS011;69047;53.358;-1.486;2023-04-16T10:50:23;0.68;;;0.43;;
54561;SDS011;69047;53.358;-1.486;2023-04-16T10:53:03;0.40;;;0.30;;
54561;SDS011;69047;53.358;-1.486;2023-04-16T10:58:32;3.20;;;0.32;;
54561;SDS011;69047;53.358;-1.486;2023-04-16T11:01:00;0.80;;;0.30;;
54561;SDS011;69047;53.358;-1.486;2023-04-16T11:03:32;1.48;;;0.63;;
54561;SDS011;69047;53.358;-1.486;2023-04-16T11:06:10;2.13;;;0.52;;
54561;SDS011;69047;53.358;-1.486;2023-04-16T11:08:41;0.98;;;0.35;;
54561;SDS011;69047;53.358;-1.486;2023-04-16T11:11:09;0.90;;;0.47;;
54561;SDS011;69047;53.358;-1.486;2023-04-16T11:13:35;0.50;;;0.50;;
54561;SDS011;69047;53.358;-1.486;2023-04-16T11:16:01;1.77;;;0.40;;
54561;SDS011;69047;53.358;-1.486;2023-04-16T11:18:27;0.77;;;0.40;;
54561;SDS011;69047;53.358;-1.486;2023-04-16T11:20:52;1.55;;;0.38;;
54561;SDS011;69047;53.358;-1.486;2023-04-16T11:23:18;2.75;;;0.60;;
54561;SDS011;69047;53.358;-1.486;2023-04-16T11:25:43;0.75;;;0.30;;
54561;SDS011;69047;53.358;-1.486;2023-04-16T11:28:09;1.33;;;0.45;;
54561;SDS011;69047;53.358;-1.486;2023-04-16T11:30:35;7.50;;;3.47;;
54561;SDS011;69047;53.358;-1.486;2023-04-16T11:33:05;4.88;;;1.50;;
54561;SDS011;69047;53.358;-1.486;2023-04-16T11:35:32;4.82;;;1.58;;
54561;SDS011;69047;53.358;-1.486;2023-04-16T11:38:01;4.53;;;1.52;;
54561;SDS011;69047;53.358;-1.486;2023-04-16T11:40:29;5.20;;;1.63;;
54561;SDS011;69047;53.358;-1.486;2023-04-16T11:42:55;4.00;;;1.85;;
54561;SDS011;69047;53.358;-1.486;2023-04-16T11:45:26;7.80;;;4.50;;
54561;SDS011;69047;53.358;-1.486;2023-04-16T11:47:52;12.10;;;2.53;;
54561;SDS011;69047;53.358;-1.486;2023-04-16T11:50:23;3.97;;;2.10;;
54561;SDS011;69047;53.358;-1.486;2023-04-16T11:52:50;4.65;;;1.85;;
54561;SDS011;69047;53.358;-1.486;2023-04-16T11:55:17;4.32;;;1.73;;
54561;SDS011;69047;53.358;-1.486;2023-04-16T11:57:43;2.53;;;1.77;;
54561;SDS011;69047;53.358;-1.486;2023-04-16T12:00:10;4.47;;;1.70;;
54561;SDS011;69047;53.358;-1.486;2023-04-16T12:02:43;2.00;;;1.55;;
54561;SDS011;69047;53.358;-1.486;2023-04-16T12:05:26;2.47;;;1.80;;
54561;SDS011;69047;53.358;-1.486;2023-04-16T12:07:58;4.22;;;1.95;;
54561;SDS011;69047;53.358;-1.486;2023-04-16T12:10:25;5.65;;;1.60;;
54561;SDS011;69047;53.358;-1.486;2023-04-16T12:12:51;3.58;;;1.50;;
54561;SDS011;69047;53.358;-1.486;2023-04-16T12:15:17;4.47;;;1.35;;
54561;SDS011;69047;53.358;-1.486;2023-04-16T12:17:42;2.83;;;1.50;;
54561;SDS011;69047;53.358;-1.486;2023-04-16T12:20:08;2.80;;;1.20;;
54561;SDS011;69047;53.358;-1.486;2023-04-16T12:22:38;5.68;;;1.50;;
54561;SDS011;69047;53.358;-1.486;2023-04-16T12:25:11;3.13;;;1.33;;
54561;SDS011;69047;53.358;-1.486;2023-04-16T12:27:45;6.35;;;1.20;;
54561;SDS011;69047;53.358;-1.486;2023-04-16T12:30:13;2.83;;;1.13;;
54561;SDS011;69047;53.358;-1.486;2023-04-16T12:32:40;3.25;;;0.90;;
54561;SDS011;69047;53.358;-1.486;2023-04-16T12:35:06;1.63;;;0.80;;
54561;SDS011;69047;53.358;-1.486;2023-04-16T12:37:32;9.30;;;1.67;;
54561;SDS011;69047;53.358;-1.486;2023-04-16T12:39:59;3.20;;;1.00;;
54561;SDS011;69047;53.358;-1.486;2023-04-16T12:42:25;2.60;;;0.82;;
54561;SDS011;69047;53.358;-1.486;2023-04-16T12:44:51;2.70;;;1.02;;
54561;SDS011;69047;53.358;-1.486;2023-04-16T12:47:16;3.08;;;0.90;;
54561;SDS011;69047;53.358;-1.486;2023-04-16T12:49:42;2.22;;;0.95;;
54561;SDS011;69047;53.358;-1.486;2023-04-16T12:52:08;1.42;;;0.60;;
54561;SDS011;69047;53.358;-1.486;2023-04-16T12:54:34;2.65;;;0.80;;
54561;SDS011;69047;53.358;-1.486;2023-04-16T12:56:59;1.48;;;0.85;;
54561;SDS011;69047;53.358;-1.486;2023-04-16T12:59:25;5.22;;;0.93;;
54561;SDS011;69047;53.358;-1.486;2023-04-16T13:01:50;4.50;;;0.90;;
54561;SDS011;69047;53.358;-1.486;2023-04-16T13:04:15;1.27;;;0.88;;
54561;SDS011;69047;53.358;-1.486;2023-04-16T13:06:42;1.95;;;0.80;;
54561;SDS011;69047;53.358;-1.486;2023-04-16T13:09:08;1.67;;;0.60;;
54561;SDS011;69047;53.358;-1.486;2023-04-16T13:11:35;4.85;;;1.00;;
54561;SDS011;69047;53.358;-1.486;2023-04-16T13:14:01;2.78;;;0.70;;
54561;SDS011;69047;53.358;-1.486;2023-04-16T13:16:26;1.40;;;0.75;;
54561;SDS011;69047;53.358;-1.486;2023-04-16T13:18:51;3.70;;;0.65;;
54561;SDS011;69047;53.358;-1.486;2023-04-16T13:21:17;3.00;;;0.50;;
54561;SDS011;69047;53.358;-1.486;2023-04-16T13:23:42;1.73;;;0.57;;
54561;SDS011;69047;53.358;-1.486;2023-04-16T13:26:08;1.45;;;0.65;;
54561;SDS011;69047;53.358;-1.486;2023-04-16T13:28:33;1.55;;;0.75;;
54561;SDS011;69047;53.358;-1.486;2023-04-16T13:30:59;2.25;;;1.00;;
54561;SDS011;69047;53.358;-1.486;2023-04-16T13:33:25;2.05;;;0.70;;
54561;SDS011;69047;53.358;-1.486;2023-04-16T13:35:50;2.05;;;0.80;;
54561;SDS011;69047;53.358;-1.486;2023-04-16T13:38:16;2.63;;;0.68;;
54561;SDS011;69047;53.358;-1.486;2023-04-16T13:40:42;1.10;;;0.50;;
54561;SDS011;69047;53.358;-1.486;2023-04-16T13:43:07;0.73;;;0.60;;
54561;SDS011;69047;53.358;-1.486;2023-04-16T13:45:32;1.25;;;0.63;;
54561;SDS011;69047;53.358;-1.486;2023-04-16T13:47:58;1.25;;;0.65;;
54561;SDS011;69047;53.358;-1.486;2023-04-16T13:50:23;1.67;;;0.63;;
54561;SDS011;69047;53.358;-1.486;2023-04-16T13:52:49;0.60;;;0.52;;
54561;SDS011;69047;53.358;-1.486;2023-04-16T13:55:15;0.88;;;0.40;;
54561;SDS011;69047;53.358;-1.486;2023-04-16T13:57:43;1.55;;;0.65;;
54561;SDS011;69047;53.358;-1.486;2023-04-16T14:00:10;2.33;;;0.60;;
54561;SDS011;69047;53.358;-1.486;2023-04-16T14:02:35;3.35;;;1.00;;
54561;SDS011;69047;53.358;-1.486;2023-04-16T14:05:01;0.68;;;0.50;;
54561;SDS011;69047;53.358;-1.486;2023-04-16T14:07:27;1.55;;;0.65;;
54561;SDS011;69047;53.358;-1.486;2023-04-16T14:09:53;1.85;;;0.60;;
54561;SDS011;69047;53.358;-1.486;2023-04-16T14:12:18;1.17;;;0.57;;
54561;SDS011;69047;53.358;-1.486;2023-04-16T14:14:44;1.45;;;0.68;;
54561;SDS011;69047;53.358;-1.486;2023-04-16T14:17:10;0.95;;;0.50;;
54561;SDS011;69047;53.358;-1.486;2023-04-16T14:19:35;1.23;;;0.50;;
54561;SDS011;69047;53.358;-1.486;2023-04-16T14:22:00;1.20;;;0.80;;
54561;SDS011;69047;53.358;-1.486;2023-04-16T14:24:26;1.10;;;0.57;;
54561;SDS011;69047;53.358;-1.486;2023-04-16T14:26:51;0.93;;;0.47;;
54561;SDS011;69047;53.358;-1.486;2023-04-16T14:29:17;1.95;;;0.95;;
54561;SDS011;69047;53.358;-1.486;2023-04-16T14:31:42;1.20;;;0.50;;
54561;SDS011;69047;53.358;-1.486;2023-04-16T14:34:08;0.65;;;0.50;;
54561;SDS011;69047;53.358;-1.486;2023-04-16T14:36:34;2.08;;;0.77;;